Time;durP1;ratioP1;P1;durP2;ratioP2;P2;SDS_P1;SDS_P2;PMS_P1;PMS_P2;Temp;Humidity;BMP_temperature;BMP_pressure;BME280_temperature;BME280_humidity;BME280_pressure;Samples;Min_cycle;Max_cycle;Signal;HPM_P1;HPM_P2
2023/10/22 00:02:26;;;;;;;0.00;0.00;;;;;;;22.44;100.00;99691.19;10276803;28;20419;-79
2023/10/22 00:07:27;;;;;;;0.00;0.00;;;;;;;21.48;100.00;99685.38;10280974;28;20042;-79
2023/10/22 00:12:29;;;;;;;0.00;0.00;;;;;;;21.64;100.00;99697.91;10284118;28;20347;-80
2023/10/22 00:17:30;;;;;;;0.00;0.00;;;;;;;21.67;100.00;99689.94;10286364;28;20066;-79
2023/10/22 00:22:32;;;;;;;0.00;0.00;;;;;;;21.38;100.00;99690.13;10291266;28;20097;-79
2023/10/22 00:27:34;;;;;;;0.00;0.00;;;;;;;21.92;100.00;99689.81;10293373;28;20039;-83
2023/10/22 00:32:35;;;;;;;0.00;0.00;;;;;;;22.04;100.00;99693.69;10291085;28;20473;-80
2023/10/22 00:37:37;;;;;;;0.00;0.00;;;;;;;22.00;100.00;99692.13;10284976;28;20070;-80
2023/10/22 00:42:38;;;;;;;0.00;0.00;;;;;;;21.51;100.00;99695.75;10292842;28;20098;-79
2023/10/22 00:47:41;;;;;;;2.20;0.30;;;;;;;22.41;100.00;99696.59;10290617;28;20543;-80
2023/10/22 00:52:43;;;;;;;0.10;0.10;;;;;;;21.38;100.00;99705.00;10275880;28;20550;-79
2023/10/22 00:57:45;;;;;;;0.00;0.00;;;;;;;21.22;100.00;99705.56;10290654;28;20046;-79
2023/10/22 01:02:47;;;;;;;0.00;0.00;;;;;;;22.10;100.00;99709.19;10290579;28;20054;-80
2023/10/22 01:07:48;;;;;;;0.00;0.00;;;;;;;21.69;100.00;99702.06;10289434;28;20094;-79
2023/10/22 01:12:50;;;;;;;0.00;0.00;;;;;;;21.70;100.00;99700.31;10289881;28;20062;-81
2023/10/22 01:17:52;;;;;;;0.00;0.00;;;;;;;21.59;100.00;99705.09;10288905;28;20050;-79
2023/10/22 01:22:54;;;;;;;0.00;0.00;;;;;;;21.51;100.00;99708.00;10294322;28;20698;-79
2023/10/22 01:27:58;;;;;;;0.00;0.00;;;;;;;21.40;100.00;99703.19;10288753;28;20121;-79
2023/10/22 01:32:59;;;;;;;0.00;0.00;;;;;;;21.31;100.00;99719.25;10288642;28;20525;-79
2023/10/22 01:38:01;;;;;;;0.00;0.00;;;;;;;21.82;100.00;99726.03;10289646;28;20784;-79
2023/10/22 01:43:02;;;;;;;0.08;0.00;;;;;;;21.00;100.00;99728.22;10290642;28;20042;-80
2023/10/22 01:48:05;;;;;;;0.20;0.13;;;;;;;21.07;100.00;99724.47;10288126;28;20066;-81
2023/10/22 01:53:07;;;;;;;0.22;0.10;;;;;;;21.45;100.00;99722.19;10279377;28;20051;-79
2023/10/22 01:58:09;;;;;;;0.00;0.00;;;;;;;21.91;100.00;99721.34;10289079;28;20042;-80
2023/10/22 02:03:11;;;;;;;0.00;0.00;;;;;;;21.50;100.00;99730.72;10288504;28;20057;-81
2023/10/22 02:08:13;;;;;;;0.00;0.00;;;;;;;21.56;100.00;99735.72;10286387;28;20097;-79
2023/10/22 02:13:14;;;;;;;0.00;0.00;;;;;;;21.20;100.00;99746.66;10282620;28;20506;-80
2023/10/22 02:18:16;;;;;;;0.03;0.03;;;;;;;21.68;100.00;99738.81;10288424;28;20508;-78
2023/10/22 02:23:19;;;;;;;0.00;0.00;;;;;;;21.37;100.00;99745.19;10286228;28;20039;-79
2023/10/22 02:28:21;;;;;;;1.20;1.10;;;;;;;21.09;100.00;99751.47;10287382;28;20059;-80
2023/10/22 02:33:22;;;;;;;0.52;0.20;;;;;;;20.72;100.00;99763.19;10294317;28;20137;-81
2023/10/22 02:38:24;;;;;;;0.10;0.10;;;;;;;21.63;100.00;99752.09;10285710;28;20498;-80
2023/10/22 02:43:25;;;;;;;0.00;0.00;;;;;;;21.18;100.00;99772.09;10286321;28;20042;-80
2023/10/22 02:48:27;;;;;;;0.00;0.00;;;;;;;20.91;100.00;99774.75;10285909;28;20038;-79
2023/10/22 02:53:29;;;;;;;0.47;0.30;;;;;;;20.90;100.00;99786.13;10285828;28;20138;-79
2023/10/22 02:58:30;;;;;;;0.00;0.00;;;;;;;21.52;100.00;99794.41;10286311;28;20093;-80
2023/10/22 03:03:38;;;;;;;0.13;0.03;;;;;;;20.80;100.00;99813.56;10285203;28;20896;-80
2023/10/22 03:08:41;;;;;;;0.00;0.00;;;;;;;21.17;100.00;99812.28;10284904;28;20043;-79
2023/10/22 03:13:44;;;;;;;0.00;0.00;;;;;;;20.99;100.00;99823.38;10285320;28;20141;-80
2023/10/22 03:18:46;;;;;;;0.00;0.00;;;;;;;20.25;100.00;99824.88;10284480;28;20047;-80
2023/10/22 03:23:48;;;;;;;0.00;0.00;;;;;;;21.06;100.00;99841.47;10285220;28;20051;-79
2023/10/22 03:28:51;;;;;;;0.00;0.00;;;;;;;20.75;100.00;99854.72;10282200;28;20122;-79
2023/10/22 03:33:53;;;;;;;0.20;0.10;;;;;;;19.76;100.00;99862.94;10285002;28;20145;-81
2023/10/22 03:38:54;;;;;;;0.00;0.00;;;;;;;20.69;100.00;99868.84;10283580;28;20046;-79
2023/10/22 03:43:56;;;;;;;0.13;0.00;;;;;;;20.38;100.00;99869.81;10284938;28;20532;-80
2023/10/22 03:48:58;;;;;;;0.00;0.00;;;;;;;20.41;100.00;99892.41;10284249;28;20043;-81
2023/10/22 03:54:00;;;;;;;0.00;0.00;;;;;;;20.47;100.00;99888.75;10268016;28;20053;-79
2023/10/22 03:59:02;;;;;;;0.00;0.00;;;;;;;20.15;100.00;99890.59;10285483;28;20046;-80
2023/10/22 04:04:04;;;;;;;0.00;0.00;;;;;;;20.23;100.00;99899.91;10284444;28;20046;-81
2023/10/22 04:09:05;;;;;;;0.00;0.00;;;;;;;20.34;100.00;99914.44;10285234;28;20114;-80
2023/10/22 04:14:07;;;;;;;1.17;0.38;;;;;;;20.41;100.00;99918.56;10282270;28;20051;-79
2023/10/22 04:19:08;;;;;;;0.00;0.00;;;;;;;19.90;100.00;99931.38;10283799;28;20041;-80
2023/10/22 04:24:10;;;;;;;0.00;0.00;;;;;;;20.11;100.00;99939.50;10285466;28;20047;-82
2023/10/22 04:29:12;;;;;;;0.10;0.10;;;;;;;19.76;100.00;99952.63;10298640;28;20125;-82
2023/10/22 04:34:13;;;;;;;0.00;0.00;;;;;;;20.84;100.00;99958.28;10283503;28;20109;-79
2023/10/22 04:39:15;;;;;;;0.00;0.00;;;;;;;21.15;100.00;99971.22;10284548;28;20051;-79
2023/10/22 04:44:16;;;;;;;0.00;0.00;;;;;;;19.79;100.00;99989.16;10283612;28;20816;-80
2023/10/22 04:49:18;;;;;;;0.00;0.00;;;;;;;21.18;100.00;99997.34;10280575;28;20101;-79
2023/10/22 04:54:19;;;;;;;1.67;0.17;;;;;;;21.05;100.00;99998.59;10283541;28;20101;-80
2023/10/22 04:59:21;;;;;;;0.28;0.22;;;;;;;21.26;100.00;100019.78;10283657;28;20122;-80
2023/10/22 05:04:22;;;;;;;1.02;0.17;;;;;;;21.09;100.00;100029.06;10279003;28;20086;-79
2023/10/22 05:09:24;;;;;;;0.00;0.00;;;;;;;21.86;100.00;100037.00;10284125;28;20317;-80
2023/10/22 05:14:26;;;;;;;0.00;0.00;;;;;;;21.37;100.00;100043.88;10290930;28;20051;-80
2023/10/22 05:19:27;;;;;;;0.15;0.15;;;;;;;21.45;100.00;100048.84;10290014;28;20449;-80
2023/10/22 05:24:30;;;;;;;0.13;0.13;;;;;;;20.89;100.00;100069.78;10284560;28;20047;-82
2023/10/22 05:29:35;;;;;;;0.30;0.30;;;;;;;21.38;100.00;100090.13;10273633;28;20841;-80
2023/10/22 05:34:37;;;;;;;0.10;0.00;;;;;;;21.66;100.00;100102.34;10289988;28;20050;-80
2023/10/22 05:39:39;;;;;;;0.55;0.10;;;;;;;21.77;100.00;100108.13;10282547;28;20043;-81
2023/10/22 05:44:40;;;;;;;0.00;0.00;;;;;;;21.23;100.00;100117.66;10290675;28;20054;-79
2023/10/22 05:49:43;;;;;;;0.00;0.00;;;;;;;19.92;100.00;100138.69;10289791;28;20057;-80
2023/10/22 05:54:45;;;;;;;0.00;0.00;;;;;;;20.94;100.00;100142.13;10288398;28;20055;-80
2023/10/22 05:59:47;;;;;;;0.20;0.20;;;;;;;19.81;100.00;100138.06;10289937;28;20090;-80
2023/10/22 06:04:48;;;;;;;0.25;0.25;;;;;;;20.82;100.00;100154.63;10289071;28;20050;-80
2023/10/22 06:09:50;;;;;;;0.10;0.10;;;;;;;21.56;100.00;100170.75;10289212;28;20051;-81
2023/10/22 06:14:52;;;;;;;0.68;0.45;;;;;;;20.47;100.00;100177.38;10289109;28;20059;-81
2023/10/22 06:19:53;;;;;;;0.10;0.10;;;;;;;21.45;100.00;100191.22;10286164;28;20043;-80
2023/10/22 06:24:55;;;;;;;0.00;0.00;;;;;;;21.58;100.00;100196.09;10288331;28;20090;-79
2023/10/22 06:29:56;;;;;;;1.80;0.15;;;;;;;22.07;100.00;100207.66;10288371;28;20097;-80
2023/10/22 06:34:58;;;;;;;0.47;0.20;;;;;;;21.90;100.00;100225.69;10282029;28;20133;-79
2023/10/22 06:39:59;;;;;;;2.42;0.40;;;;;;;21.62;100.00;100237.06;10287971;28;20046;-79
2023/10/22 06:45:01;;;;;;;0.25;0.20;;;;;;;21.43;100.00;100247.19;10284321;28;20070;-79
2023/10/22 06:50:04;;;;;;;0.30;0.30;;;;;;;21.19;100.00;100263.56;10279619;28;20505;-81
2023/10/22 06:55:06;;;;;;;0.85;0.17;;;;;;;22.62;100.00;100259.19;10265674;28;20047;-80
2023/10/22 07:00:09;;;;;;;0.77;0.20;;;;;;;22.12;100.00;100267.81;10286849;28;20044;-80
2023/10/22 07:05:11;;;;;;;0.28;0.28;;;;;;;21.44;100.00;100275.97;10285696;28;20052;-80
2023/10/22 07:10:13;;;;;;;0.00;0.00;;;;;;;20.70;100.00;100294.53;10279592;28;20046;-81
2023/10/22 07:15:14;;;;;;;3.30;0.60;;;;;;;21.07;100.00;100297.97;10289496;28;20038;-79
2023/10/22 07:20:17;;;;;;;0.08;0.00;;;;;;;21.29;100.00;100307.84;10291552;28;20038;-80
2023/10/22 07:25:19;;;;;;;0.20;0.00;;;;;;;21.79;100.00;100313.41;10285020;28;20321;-80
2023/10/22 07:30:21;;;;;;;0.13;0.08;;;;;;;21.41;100.00;100325.84;10281013;28;20055;-79
2023/10/22 07:35:22;;;;;;;1.65;0.50;;;;;;;21.72;100.00;100335.47;10287432;28;20485;-81
2023/10/22 07:40:24;;;;;;;0.15;0.10;;;;;;;21.70;100.00;100334.69;10281924;28;20553;-79
2023/10/22 07:45:26;;;;;;;3.03;0.38;;;;;;;22.39;100.00;100343.97;10275621;28;20039;-81
2023/10/22 07:50:28;;;;;;;0.28;0.20;;;;;;;22.27;100.00;100355.69;10284423;28;20528;-81
2023/10/22 07:55:29;;;;;;;0.00;0.00;;;;;;;22.65;100.00;100361.50;10286156;28;20046;-80
2023/10/22 08:00:31;;;;;;;0.20;0.20;;;;;;;23.64;100.00;100359.81;10285141;28;20047;-79
2023/10/22 08:05:33;;;;;;;1.25;0.32;;;;;;;23.18;100.00;100359.72;10279537;28;20046;-79
2023/10/22 08:10:35;;;;;;;0.30;0.30;;;;;;;22.04;100.00;100375.59;10275890;28;20429;-81
2023/10/22 08:15:36;;;;;;;0.10;0.00;;;;;;;23.79;100.00;100384.72;10277965;28;20050;-80
2023/10/22 08:20:38;;;;;;;0.45;0.45;;;;;;;23.55;100.00;100380.28;10267731;28;20051;-80
2023/10/22 08:25:49;;;;;;;0.00;0.00;;;;;;;23.47;100.00;100392.00;10281080;28;20040;-80
2023/10/22 08:30:51;;;;;;;0.08;0.00;;;;;;;24.16;100.00;100396.47;10296469;28;20516;-81
2023/10/22 08:35:52;;;;;;;0.00;0.00;;;;;;;23.11;100.00;100398.47;10286137;28;20409;-82
2023/10/22 08:40:54;;;;;;;0.32;0.15;;;;;;;24.69;100.00;100406.66;10282248;28;20549;-80
2023/10/22 08:45:57;;;;;;;0.00;0.00;;;;;;;23.48;100.00;100422.63;10294705;28;20089;-81
2023/10/22 08:51:00;;;;;;;0.10;0.10;;;;;;;23.33;100.00;100422.28;10292591;28;20078;-81
2023/10/22 08:56:02;;;;;;;0.60;0.35;;;;;;;24.07;100.00;100435.41;10292670;28;20069;-80
2023/10/22 09:01:04;;;;;;;0.00;0.00;;;;;;;25.55;100.00;100448.78;10292791;28;20054;-79
2023/10/22 09:06:06;;;;;;;0.00;0.00;;;;;;;25.02;100.00;100450.97;10288505;28;20035;-80
2023/10/22 09:11:26;;;;;;;0.00;0.00;;;;;;;25.24;100.00;100457.13;10280241;28;20058;-81
2023/10/22 09:16:33;;;;;;;0.10;0.10;;;;;;;23.35;100.00;100459.84;10284580;28;20043;-82
2023/10/22 09:21:44;;;;;;;0.30;0.03;;;;;;;23.34;100.00;100471.31;10287369;28;20047;-81
2023/10/22 09:26:48;;;;;;;0.00;0.00;;;;;;;24.57;100.00;100474.75;10282464;28;20042;-79
2023/10/22 09:31:54;;;;;;;0.00;0.00;;;;;;;23.98;100.00;100472.56;10284568;28;20063;-83
2023/10/22 09:36:56;;;;;;;0.00;0.00;;;;;;;23.60;100.00;100472.16;10283794;28;20038;-81
2023/10/22 09:41:59;;;;;;;0.00;0.00;;;;;;;23.23;100.00;100489.19;10279748;28;20047;-80
2023/10/22 09:47:22;;;;;;;0.00;0.00;;;;;;;23.06;100.00;100498.44;10289276;28;20085;-81
2023/10/22 09:52:27;;;;;;;0.00;0.00;;;;;;;23.06;100.00;100508.97;10288402;28;20080;-79
2023/10/22 09:57:31;;;;;;;0.00;0.00;;;;;;;22.80;100.00;100513.28;10287629;28;20568;-80
2023/10/22 10:02:33;;;;;;;0.10;0.10;;;;;;;24.76;100.00;100507.38;10288329;28;20178;-80
2023/10/22 10:07:36;;;;;;;0.00;0.00;;;;;;;25.01;100.00;100517.78;10290229;28;20046;-81
2023/10/22 10:12:42;;;;;;;0.45;0.30;;;;;;;23.66;100.00;100521.88;10288394;28;20126;-81
2023/10/22 10:17:54;;;;;;;0.00;0.00;;;;;;;24.43;100.00;100514.78;10277558;28;20057;-82
2023/10/22 10:23:04;;;;;;;0.00;0.00;;;;;;;24.77;100.00;100526.66;10282260;28;20141;-80
2023/10/22 10:28:06;;;;;;;;;;;;;;;24.34;100.00;100527.38;10284777;28;20038;-80
2023/10/22 10:33:09;;;;;;;0.43;0.43;;;;;;;24.95;100.00;100533.84;10287639;28;20400;-80
2023/10/22 10:38:20;;;;;;;0.13;0.10;;;;;;;23.69;100.00;100540.19;10284653;28;20045;-82
2023/10/22 10:44:00;;;;;;;0.10;0.10;;;;;;;24.18;100.00;100542.00;10281749;28;20831;-82
2023/10/22 10:49:01;;;;;;;0.10;0.03;;;;;;;22.86;100.00;100551.63;10265028;28;20047;-81
2023/10/22 10:54:14;;;;;;;0.00;0.00;;;;;;;24.54;100.00;100546.81;10287805;28;20053;-80
2023/10/22 10:59:27;;;;;;;0.20;0.10;;;;;;;24.03;100.00;100551.34;10288589;28;20519;-80
2023/10/22 11:04:33;;;;;;;0.00;0.00;;;;;;;25.13;100.00;100557.75;10288285;28;20046;-82
2023/10/22 11:09:35;;;;;;;0.15;0.05;;;;;;;25.65;100.00;100552.94;10287545;28;20046;-81
2023/10/22 11:14:37;;;;;;;0.00;0.00;;;;;;;25.46;100.00;100568.72;10287960;28;20442;-82
2023/10/22 11:19:40;;;;;;;0.10;0.10;;;;;;;25.21;100.00;100568.81;10285259;28;20050;-81
2023/10/22 11:24:42;;;;;;;1.55;0.75;;;;;;;24.12;100.00;100574.69;10276730;28;20070;-81
2023/10/22 11:29:48;;;;;;;0.17;0.10;;;;;;;24.39;100.00;100571.94;10281791;28;20502;-80
2023/10/22 11:34:59;;;;;;;0.45;0.40;;;;;;;24.70;100.00;100570.84;10284486;28;20054;-80
2023/10/22 11:40:01;;;;;;;0.43;0.40;;;;;;;24.27;100.00;100581.16;10284038;28;20053;-79
2023/10/22 11:45:06;;;;;;;0.22;0.10;;;;;;;25.40;100.00;100568.09;10275615;28;20054;-81
2023/10/22 11:50:09;;;;;;;0.20;0.10;;;;;;;25.42;100.00;100580.28;10282980;28;20039;-80
2023/10/22 11:55:11;;;;;;;0.10;0.00;;;;;;;24.64;100.00;100584.22;10288017;28;20046;-80
2023/10/22 12:00:28;;;;;;;0.10;0.10;;;;;;;23.64;100.00;100600.00;10283134;28;20043;-80
2023/10/22 12:05:30;;;;;;;0.08;0.08;;;;;;;25.10;100.00;100594.75;10281110;28;20043;-84
2023/10/22 12:10:32;;;;;;;0.00;0.00;;;;;;;25.10;100.00;100597.38;10273902;28;20097;-85
2023/10/22 12:15:34;;;;;;;0.00;0.00;;;;;;;25.82;100.00;100598.84;10273708;28;20050;-84
2023/10/22 12:20:37;;;;;;;0.47;0.30;;;;;;;25.06;100.00;100614.25;10293134;28;20596;-84
2023/10/22 12:25:39;;;;;;;0.45;0.10;;;;;;;23.68;100.00;100627.91;10290678;28;20046;-84
2023/10/22 12:30:40;;;;;;;0.00;0.00;;;;;;;23.26;100.00;100638.91;10294036;28;20038;-84
2023/10/22 12:35:42;;;;;;;0.00;0.00;;;;;;;24.24;100.00;100636.53;10285538;28;20129;-83
2023/10/22 12:40:48;;;;;;;0.63;0.45;;;;;;;23.98;100.00;100635.69;10280029;28;20505;-84
2023/10/22 12:45:49;;;;;;;0.00;0.00;;;;;;;24.27;100.00;100652.22;10291704;28;20120;-87
2023/10/22 12:50:51;;;;;;;0.00;0.00;;;;;;;23.57;100.00;100661.56;10300152;28;20070;-85
2023/10/22 12:55:54;;;;;;;0.10;0.00;;;;;;;23.37;100.00;100670.94;10291431;28;20493;-86
2023/10/22 13:00:55;;;;;;;0.43;0.08;;;;;;;24.99;100.00;100667.19;10297384;28;20124;-85
2023/10/22 13:06:03;;;;;;;0.00;0.00;;;;;;;24.45;100.00;100669.16;10296578;28;20556;-85
2023/10/22 13:11:04;;;;;;;0.00;0.00;;;;;;;24.53;100.00;100668.88;10292089;28;20130;-82
2023/10/22 13:16:06;;;;;;;0.30;0.03;;;;;;;24.46;100.00;100667.38;10291319;28;20055;-83
2023/10/22 13:21:09;;;;;;;0.03;0.00;;;;;;;23.12;100.00;100682.16;10283433;28;20055;-82
2023/10/22 13:26:10;;;;;;;0.00;0.00;;;;;;;24.21;100.00;100681.41;10292008;28;20057;-83
2023/10/22 13:31:14;;;;;;;0.20;0.20;;;;;;;25.21;100.00;100687.44;10271693;28;20054;-84
2023/10/22 13:36:15;;;;;;;0.00;0.00;;;;;;;24.61;100.00;100693.13;10289548;28;20457;-81
2023/10/22 13:41:17;;;;;;;0.20;0.20;;;;;;;25.17;100.00;100696.41;10287784;28;20056;-82
2023/10/22 13:46:18;;;;;;;0.00;0.00;;;;;;;24.82;100.00;100691.53;10280876;28;20453;-81
2023/10/22 13:51:20;;;;;;;0.00;0.00;;;;;;;23.11;100.00;100700.63;10291473;28;20042;-84
2023/10/22 13:56:22;;;;;;;0.00;0.00;;;;;;;25.00;100.00;100700.53;10291640;28;20050;-83
2023/10/22 14:01:23;;;;;;;0.00;0.00;;;;;;;24.94;100.00;100710.47;10290486;28;20062;-82
2023/10/22 14:06:25;;;;;;;0.00;0.00;;;;;;;23.50;100.00;100707.34;10293119;28;20046;-82
2023/10/22 14:11:27;;;;;;;0.00;0.00;;;;;;;26.11;100.00;100711.16;10289338;28;20639;-83
2023/10/22 14:16:28;;;;;;;0.00;0.00;;;;;;;25.18;100.00;100719.22;10286698;28;20093;-82
2023/10/22 14:21:30;;;;;;;0.00;0.00;;;;;;;25.34;100.00;100724.72;10289631;28;20117;-83
2023/10/22 14:26:31;;;;;;;1.27;0.00;;;;;;;25.78;100.00;100719.50;10286595;28;20820;-82
2023/10/22 14:31:33;;;;;;;0.00;0.00;;;;;;;24.11;100.00;100746.66;10288518;28;20046;-81
2023/10/22 14:36:35;;;;;;;0.00;0.00;;;;;;;25.45;100.00;100741.06;10284304;28;20417;-81
2023/10/22 14:41:36;;;;;;;0.00;0.00;;;;;;;24.92;100.00;100744.75;10287369;28;20134;-81
2023/10/22 14:46:38;;;;;;;0.10;0.10;;;;;;;23.68;100.00;100754.13;10287727;28;20042;-83
2023/10/22 14:51:42;;;;;;;0.00;0.00;;;;;;;24.28;100.00;100748.72;10285270;28;20055;-83
2023/10/22 14:56:45;;;;;;;0.10;0.00;;;;;;;24.30;100.00;100752.16;10285735;28;20050;-85
2023/10/22 15:01:47;;;;;;;0.10;0.00;;;;;;;24.83;100.00;100760.91;10288625;28;20125;-82
2023/10/22 15:06:48;;;;;;;0.00;0.00;;;;;;;24.73;100.00;100754.25;10289832;28;20446;-84
2023/10/22 15:11:50;;;;;;;0.20;0.10;;;;;;;24.43;100.00;100759.63;10279721;28;20059;-82
2023/10/22 15:16:51;;;;;;;0.47;0.22;;;;;;;23.75;100.00;100758.28;10284218;28;20050;-81
2023/10/22 15:21:53;;;;;;;0.00;0.00;;;;;;;23.22;100.00;100779.16;10286212;28;20469;-81
2023/10/22 15:26:57;;;;;;;0.00;0.00;;;;;;;24.20;100.00;100771.81;10266907;28;20054;-81
2023/10/22 15:32:00;;;;;;;0.13;0.13;;;;;;;24.13;100.00;100781.66;10285169;28;20129;-83
2023/10/22 15:37:01;;;;;;;0.28;0.10;;;;;;;23.82;100.00;100784.41;10285385;28;20501;-81
2023/10/22 15:42:03;;;;;;;0.00;0.00;;;;;;;23.58;100.00;100790.38;10284328;28;20421;-82
2023/10/22 15:47:05;;;;;;;0.15;0.10;;;;;;;23.10;100.00;100798.75;10279515;28;20046;-83
2023/10/22 15:52:07;;;;;;;0.05;0.00;;;;;;;23.03;100.00;100803.31;10283341;28;20112;-82
2023/10/22 15:57:08;;;;;;;0.00;0.00;;;;;;;22.74;100.00;100807.59;10284937;28;20742;-81
2023/10/22 16:02:10;;;;;;;0.08;0.08;;;;;;;22.33;100.00;100805.09;10285569;28;20053;-83
2023/10/22 16:07:11;;;;;;;0.00;0.00;;;;;;;21.85;100.00;100810.59;10285486;28;20089;-84
2023/10/22 16:12:14;;;;;;;0.45;0.10;;;;;;;22.19;100.00;100809.78;10287309;28;20059;-82
2023/10/22 16:17:16;;;;;;;0.10;0.10;;;;;;;22.25;100.00;100822.78;10288733;28;20054;-82
2023/10/22 16:22:17;;;;;;;0.03;0.03;;;;;;;22.34;100.00;100830.44;10285850;28;20043;-82
2023/10/22 16:27:19;;;;;;;0.38;0.30;;;;;;;21.98;100.00;100833.03;10282415;28;20533;-82
2023/10/22 16:32:21;;;;;;;0.00;0.00;;;;;;;22.29;100.00;100842.81;10282250;28;20053;-81
2023/10/22 16:37:22;;;;;;;0.05;0.00;;;;;;;22.26;100.00;100842.00;10262772;28;20131;-82
2023/10/22 16:42:24;;;;;;;0.00;0.00;;;;;;;22.34;100.00;100853.19;10281126;28;20042;-83
2023/10/22 16:47:26;;;;;;;0.00;0.00;;;;;;;22.65;100.00;100868.22;10284238;28;20091;-82
2023/10/22 16:52:29;;;;;;;0.52;0.00;;;;;;;23.64;100.00;100864.72;10283832;28;20138;-83
2023/10/22 16:57:31;;;;;;;0.20;0.00;;;;;;;22.43;100.00;100874.00;10284485;28;20052;-82
2023/10/22 17:02:33;;;;;;;0.10;0.10;;;;;;;23.38;100.00;100882.97;10285250;28;20070;-82
2023/10/22 17:07:35;;;;;;;0.00;0.00;;;;;;;23.42;100.00;100889.84;10276337;28;20457;-83
2023/10/22 17:12:36;;;;;;;0.00;0.00;;;;;;;23.47;100.00;100894.13;10282562;28;20059;-83
2023/10/22 17:17:38;;;;;;;0.08;0.08;;;;;;;22.96;100.00;100898.97;10304612;28;20042;-84
2023/10/22 17:22:41;;;;;;;0.90;0.20;;;;;;;22.64;100.00;100895.38;10283453;28;20049;-81
2023/10/22 17:27:43;;;;;;;0.08;0.00;;;;;;;22.66;100.00;100906.72;10292987;28;20058;-85
2023/10/22 17:32:44;;;;;;;0.15;0.15;;;;;;;22.19;100.00;100920.88;10290818;28;20062;-81
2023/10/22 17:37:46;;;;;;;0.30;0.13;;;;;;;22.28;100.00;100918.94;10273711;28;20118;-82
2023/10/22 17:42:47;;;;;;;0.20;0.13;;;;;;;22.04;100.00;100931.72;10290123;28;20043;-81
2023/10/22 17:47:49;;;;;;;0.10;0.05;;;;;;;21.77;100.00;100927.91;10289733;28;20441;-82
2023/10/22 17:52:53;;;;;;;0.65;0.63;;;;;;;20.55;100.00;100944.81;10288815;28;20053;-81
2023/10/22 17:57:55;;;;;;;0.10;0.10;;;;;;;21.48;100.00;100943.25;10286227;28;20470;-81
2023/10/22 18:02:56;;;;;;;1.25;0.35;;;;;;;20.74;100.00;100952.41;10277045;28;20063;-81
2023/10/22 18:07:58;;;;;;;0.40;0.40;;;;;;;20.71;100.00;100949.81;10268282;28;20051;-84
2023/10/22 18:13:00;;;;;;;3.53;0.40;;;;;;;21.63;100.00;100943.94;10293468;28;20046;-83
2023/10/22 18:18:01;;;;;;;0.63;0.35;;;;;;;21.76;100.00;100962.88;10292022;28;20035;-82
2023/10/22 18:23:04;;;;;;;0.20;0.20;;;;;;;22.36;100.00;100969.50;10282046;28;20054;-83
2023/10/22 18:28:06;;;;;;;0.40;0.22;;;;;;;21.85;100.00;100968.84;10288262;28;20043;-83
2023/10/22 18:33:07;;;;;;;0.93;0.85;;;;;;;22.58;100.00;100971.69;10287123;28;20648;-81
2023/10/22 18:38:09;;;;;;;0.10;0.10;;;;;;;21.95;100.00;100982.63;10287384;28;20102;-81
2023/10/22 18:43:11;;;;;;;0.28;0.13;;;;;;;21.49;100.00;100994.81;10285025;28;20065;-81
2023/10/22 18:48:12;;;;;;;0.00;0.00;;;;;;;23.52;100.00;100982.50;10288108;28;20057;-82
2023/10/22 18:53:14;;;;;;;0.10;0.10;;;;;;;23.42;100.00;100987.13;10280001;28;20058;-82
2023/10/22 18:58:16;;;;;;;0.35;0.25;;;;;;;23.27;100.00;100995.44;10269954;28;20047;-80
2023/10/22 19:03:18;;;;;;;0.45;0.30;;;;;;;23.25;100.00;100997.25;10285943;28;20469;-81
2023/10/22 19:08:20;;;;;;;0.00;0.00;;;;;;;23.26;100.00;100999.81;10284691;28;20043;-81
2023/10/22 19:13:22;;;;;;;0.95;0.30;;;;;;;22.41;100.00;101011.44;10286998;28;20882;-83
2023/10/22 19:18:23;;;;;;;0.77;0.40;;;;;;;20.95;100.00;101015.81;10291174;28;20034;-82
2023/10/22 19:23:25;;;;;;;0.75;0.40;;;;;;;21.44;100.00;101020.25;10288224;28;20121;-82
2023/10/22 19:28:26;;;;;;;0.63;0.43;;;;;;;21.06;100.00;101035.72;10298511;28;20058;-82
2023/10/22 19:33:31;;;;;;;0.38;0.38;;;;;;;20.73;100.00;101037.09;10276258;28;20042;-81
2023/10/22 19:38:33;;;;;;;0.30;0.30;;;;;;;21.33;100.00;101037.91;10283540;28;20050;-80
2023/10/22 19:43:35;;;;;;;0.40;0.40;;;;;;;21.21;100.00;101039.84;10285706;28;20063;-80
2023/10/22 19:48:40;;;;;;;0.75;0.50;;;;;;;21.70;100.00;101042.53;10286090;28;20486;-81
2023/10/22 19:53:42;;;;;;;0.30;0.30;;;;;;;21.78;100.00;101053.72;10260183;28;20798;-82
2023/10/22 19:58:44;;;;;;;0.65;0.32;;;;;;;21.12;100.00;101060.06;10287791;28;20051;-84
2023/10/22 20:03:45;;;;;;;3.20;0.88;;;;;;;21.08;100.00;101067.13;10267049;28;20054;-81
2023/10/22 20:08:49;;;;;;;0.30;0.30;;;;;;;22.28;100.00;101065.91;10265642;28;20113;-81
2023/10/22 20:13:51;;;;;;;0.88;0.77;;;;;;;22.84;100.00;101076.13;10286003;28;20047;-81
2023/10/22 20:18:52;;;;;;;0.32;0.28;;;;;;;21.85;100.00;101068.50;10288667;28;20082;-83
2023/10/22 20:23:54;;;;;;;0.68;0.40;;;;;;;21.85;100.00;101075.47;10281159;28;20459;-83
2023/10/22 20:28:56;;;;;;;2.42;0.60;;;;;;;21.23;100.00;101085.22;10286990;28;20643;-85
2023/10/22 20:33:57;;;;;;;1.90;0.40;;;;;;;22.58;100.00;101089.84;10288005;28;20138;-82
2023/10/22 20:38:59;;;;;;;1.33;0.73;;;;;;;21.49;100.00;101091.78;10290507;28;20048;-83
2023/10/22 20:44:00;;;;;;;2.88;0.68;;;;;;;20.87;100.00;101103.22;10296387;28;20042;-83
2023/10/22 20:49:02;;;;;;;0.90;0.90;;;;;;;21.27;100.00;101100.88;10291083;28;20765;-81
2023/10/22 20:54:04;;;;;;;1.13;0.30;;;;;;;21.20;100.00;101095.75;10291449;28;20085;-83
2023/10/22 20:59:06;;;;;;;1.05;0.85;;;;;;;20.64;100.00;101100.84;10292542;28;20441;-81
2023/10/22 21:04:07;;;;;;;0.35;0.32;;;;;;;21.63;100.00;101099.47;10292603;28;20050;-82
2023/10/22 21:09:09;;;;;;;0.77;0.35;;;;;;;21.96;100.00;101101.50;10289590;28;20050;-82
2023/10/22 21:14:10;;;;;;;0.00;0.00;;;;;;;22.15;100.00;101102.88;10292258;28;20050;-81
2023/10/22 21:19:12;;;;;;;0.85;0.45;;;;;;;21.32;100.00;101106.94;10280252;28;20042;-82
2023/10/22 21:24:14;;;;;;;0.10;0.10;;;;;;;21.21;100.00;101120.19;10277762;28;20053;-83
2023/10/22 21:29:16;;;;;;;1.15;0.43;;;;;;;21.78;100.00;101103.56;10292103;28;20038;-84
2023/10/22 21:34:17;;;;;;;0.40;0.20;;;;;;;21.51;100.00;101110.97;10294164;28;20050;-83
2023/10/22 21:39:20;;;;;;;0.52;0.22;;;;;;;21.54;100.00;101107.44;10292794;28;20038;-81
2023/10/22 21:44:22;;;;;;;0.30;0.10;;;;;;;21.99;100.00;101104.09;10291908;28;20039;-81
2023/10/22 21:49:24;;;;;;;0.20;0.20;;;;;;;21.79;100.00;101105.28;10290973;28;20050;-82
2023/10/22 21:54:25;;;;;;;1.10;0.60;;;;;;;21.91;100.00;101108.59;10292060;28;20050;-81
2023/10/22 21:59:27;;;;;;;0.57;0.20;;;;;;;22.12;100.00;101108.19;10283780;28;20106;-81
2023/10/22 22:04:28;;;;;;;0.22;0.13;;;;;;;21.10;100.00;101117.75;10289454;28;20125;-82
2023/10/22 22:09:30;;;;;;;0.28;0.28;;;;;;;20.70;100.00;101118.25;10290177;28;20497;-83
2023/10/22 22:14:32;;;;;;;0.40;0.40;;;;;;;20.83;100.00;101129.47;10289064;28;20078;-81
2023/10/22 22:19:34;;;;;;;0.52;0.25;;;;;;;20.64;100.00;101127.03;10288762;28;20147;-83
2023/10/22 22:24:35;;;;;;;1.25;0.85;;;;;;;20.88;100.00;101136.38;10288437;28;20046;-84
2023/10/22 22:29:37;;;;;;;0.68;0.50;;;;;;;21.24;100.00;101139.38;10275320;28;20093;-81
2023/10/22 22:34:39;;;;;;;0.90;0.57;;;;;;;21.99;100.00;101135.56;10268339;28;20678;-82
2023/10/22 22:39:41;;;;;;;0.15;0.15;;;;;;;21.72;100.00;101145.63;10287770;28;20046;-83
2023/10/22 22:44:43;;;;;;;0.50;0.38;;;;;;;20.32;100.00;101146.63;10286221;28;20055;-82
2023/10/22 22:49:44;;;;;;;0.30;0.30;;;;;;;21.76;100.00;101143.81;10281833;28;20038;-81
2023/10/22 22:54:46;;;;;;;0.60;0.60;;;;;;;22.44;100.00;101148.75;10275416;28;20114;-82
2023/10/22 22:59:56;;;;;;;0.22;0.22;;;;;;;22.54;100.00;101151.16;10283437;28;20086;-82